createdAt,value
2023-05-16T00:00:10.199Z,100071.34
2023-05-16T00:02:39.733Z,100015.41
2023-05-16T00:05:10.717Z,100038.34
2023-05-16T00:07:40.470Z,100061.97
2023-05-16T00:10:10.075Z,100061.03
2023-05-16T00:12:39.631Z,100067.38
2023-05-16T00:15:12.839Z,100060.84
2023-05-16T00:17:43.833Z,100066.56
2023-05-16T00:20:14.289Z,100059.47
2023-05-16T00:22:44.235Z,100057.22
2023-05-16T00:25:12.724Z,100029.91
2023-05-16T00:27:41.040Z,100054.72
2023-05-16T00:30:12.071Z,100060.84
2023-05-16T00:32:40.434Z,100054.75
2023-05-16T00:35:10.760Z,100059.25
2023-05-16T00:37:39.484Z,100059.69
2023-05-16T00:40:10.884Z,100058.28
2023-05-16T00:42:39.872Z,100057.69
2023-05-16T00:45:10.437Z,100059.88
2023-05-16T00:47:39.053Z,100047.06
2023-05-16T00:50:08.524Z,100056.00
2023-05-16T00:52:36.994Z,100062.13
2023-05-16T00:55:09.013Z,100056.41
2023-05-16T00:57:37.764Z,100060.91
2023-05-16T01:00:09.362Z,100066.41
2023-05-16T01:02:39.354Z,100059.50
2023-05-16T01:05:08.600Z,100052.38
2023-05-16T01:07:37.488Z,100055.03
2023-05-16T01:10:09.701Z,100066.63
2023-05-16T01:12:43.500Z,100054.59
2023-05-16T01:15:19.351Z,100061.75
2023-05-16T01:18:08.010Z,100062.94
2023-05-16T01:20:48.259Z,100058.09
2023-05-16T01:23:35.576Z,100071.13
2023-05-16T01:26:17.070Z,100064.59
2023-05-16T01:28:47.767Z,100070.31
2023-05-16T01:31:16.530Z,100060.53
2023-05-16T01:33:46.613Z,100040.16
2023-05-16T01:36:25.456Z,100067.06
2023-05-16T01:39:16.395Z,100072.75
2023-05-16T01:41:58.337Z,100063.19
2023-05-16T01:44:33.670Z,100048.50
2023-05-16T01:47:09.283Z,100067.06
2023-05-16T01:49:45.297Z,100063.38
2023-05-16T01:52:21.740Z,100064.59
2023-05-16T01:54:53.578Z,100069.28
2023-05-16T01:57:27.653Z,100050.75
2023-05-16T01:59:56.370Z,100063.38
2023-05-16T02:02:24.798Z,100069.28
2023-05-16T02:04:53.196Z,100073.16
2023-05-16T02:07:21.902Z,100079.69
2023-05-16T02:09:50.280Z,100081.94
2023-05-16T02:12:19.017Z,100079.88
2023-05-16T02:14:48.759Z,100079.88
2023-05-16T02:17:17.277Z,100075.59
2023-05-16T02:19:45.698Z,100072.94
2023-05-16T02:22:14.125Z,100078.69
2023-05-16T02:24:42.505Z,100076.41
2023-05-16T02:27:10.889Z,100078.88
2023-05-16T02:29:39.214Z,100083.56
2023-05-16T02:32:09.569Z,100075.22
2023-05-16T02:34:37.908Z,100075.19
2023-05-16T02:37:06.950Z,100085.78
2023-05-16T02:39:35.338Z,100077.22
2023-05-16T02:42:03.850Z,100070.91
2023-05-16T02:44:32.357Z,100087.59
2023-05-16T02:47:00.784Z,100086.97
2023-05-16T02:49:30.541Z,100085.28
2023-05-16T02:51:58.923Z,100094.03
2023-05-16T02:54:27.383Z,100100.00
2023-05-16T02:56:55.759Z,100092.72
2023-05-16T02:59:24.235Z,100083.72
2023-05-16T03:01:52.599Z,100111.66
2023-05-16T03:04:21.145Z,100107.41
2023-05-16T03:06:52.244Z,100102.91
2023-05-16T03:09:20.763Z,100105.34
2023-05-16T03:11:49.150Z,100104.16
2023-05-16T03:14:17.601Z,100100.06
2023-05-16T03:16:48.382Z,100104.13
2023-05-16T03:19:16.934Z,100107.59
2023-05-16T03:21:45.477Z,100099.25
2023-05-16T03:24:16.459Z,100106.59
2023-05-16T03:26:45.648Z,100097.44
2023-05-16T03:29:13.998Z,100106.59
2023-05-16T03:31:42.651Z,100110.25
2023-05-16T03:34:11.052Z,100109.25
2023-05-16T03:36:42.229Z,100103.75
2023-05-16T03:39:10.744Z,100113.28
2023-05-16T03:41:40.486Z,100108.59
2023-05-16T03:44:08.853Z,100119.59
2023-05-16T03:46:37.481Z,100100.84
2023-05-16T03:49:06.386Z,100117.38
2023-05-16T03:51:34.893Z,100124.28
2023-05-16T03:54:03.301Z,100128.13
2023-05-16T03:56:31.718Z,100135.91
2023-05-16T03:59:01.423Z,100130.38
2023-05-16T04:01:29.850Z,100132.44
2023-05-16T04:03:58.177Z,100127.13
2023-05-16T04:06:27.078Z,100124.94
2023-05-16T04:08:55.469Z,100136.72
2023-05-16T04:11:23.862Z,100135.69
2023-05-16T04:13:52.357Z,100134.50
2023-05-16T04:16:22.142Z,100138.56
2023-05-16T04:18:50.827Z,100119.22
2023-05-16T04:21:19.359Z,100138.78
2023-05-16T04:23:47.871Z,100137.16
2023-05-16T04:26:16.323Z,100141.22
2023-05-16T04:28:44.888Z,100150.81
2023-05-16T04:31:14.486Z,100138.78
2023-05-16T04:33:44.429Z,100149.78
2023-05-16T04:36:12.816Z,100145.91
2023-05-16T04:38:41.929Z,100131.44
2023-05-16T04:41:10.581Z,100144.91
2023-05-16T04:43:39.102Z,100153.25
2023-05-16T04:46:07.822Z,100152.84
2023-05-16T04:48:36.333Z,100150.59
2023-05-16T04:51:06.609Z,100151.63
2023-05-16T04:53:35.132Z,100160.19
2023-05-16T04:56:05.354Z,100159.34
2023-05-16T04:58:33.733Z,100158.34
2023-05-16T05:01:02.134Z,100163.25
2023-05-16T05:03:30.692Z,100164.47
2023-05-16T05:05:59.100Z,100174.25
2023-05-16T05:08:28.908Z,100172.81
2023-05-16T05:10:57.915Z,100165.03
2023-05-16T05:13:26.306Z,100184.84
2023-05-16T05:15:54.678Z,100176.28
2023-05-16T05:18:23.179Z,100185.44
2023-05-16T05:20:52.770Z,100183.22
2023-05-16T05:23:21.370Z,100188.53
2023-05-16T05:25:51.813Z,100186.47
2023-05-16T05:28:20.259Z,100199.69
2023-05-16T05:30:49.298Z,100184.41
2023-05-16T05:33:19.829Z,100208.03
2023-05-16T05:35:48.228Z,100208.69
2023-05-16T05:38:16.786Z,100212.94
2023-05-16T05:40:45.083Z,100217.25
2023-05-16T05:43:15.042Z,100210.13
2023-05-16T05:45:43.754Z,100157.50
2023-05-16T05:48:12.619Z,100214.00
2023-05-16T05:50:41.438Z,100215.59
2023-05-16T05:53:09.920Z,100226.41
2023-05-16T05:55:38.346Z,100214.38
2023-05-16T05:58:07.424Z,100228.97
2023-05-16T06:00:37.187Z,100243.00
2023-05-16T06:03:06.183Z,100202.19
2023-05-16T06:05:34.702Z,100248.28
2023-05-16T06:08:03.114Z,100233.19
2023-05-16T06:10:31.750Z,100244.19
2023-05-16T06:13:00.188Z,100245.41
2023-05-16T06:15:28.871Z,100255.91
2023-05-16T06:17:59.402Z,100233.53
2023-05-16T06:20:28.113Z,100257.94
2023-05-16T06:22:56.539Z,100255.75
2023-05-16T06:25:24.968Z,100262.34
2023-05-16T06:27:53.560Z,100266.09
2023-05-16T06:30:21.981Z,100266.59
2023-05-16T06:32:51.191Z,100267.66
2023-05-16T06:35:21.121Z,100276.44
2023-05-16T06:37:49.708Z,100279.59
2023-05-16T06:40:18.511Z,100284.41
2023-05-16T06:42:46.946Z,100288.72
2023-05-16T06:45:15.427Z,100284.88
2023-05-16T06:47:43.934Z,100287.56
2023-05-16T06:50:12.679Z,100291.28
2023-05-16T06:52:43.070Z,100293.34
2023-05-16T06:55:12.575Z,100293.66
2023-05-16T06:57:41.124Z,100294.09
2023-05-16T07:00:11.030Z,100296.75
2023-05-16T07:02:39.557Z,100300.78
2023-05-16T07:05:09.490Z,100322.19
2023-05-16T07:07:37.955Z,100312.00
2023-05-16T07:10:09.214Z,100318.41
2023-05-16T07:12:38.572Z,100334.41
2023-05-16T07:15:09.101Z,100340.63
2023-05-16T07:17:38.191Z,100331.88
2023-05-16T07:20:08.263Z,100344.63
2023-05-16T07:22:36.639Z,100340.41
2023-05-16T07:25:12.471Z,100348.56
2023-05-16T07:27:44.597Z,100343.84
2023-05-16T07:30:15.359Z,100347.19
2023-05-16T07:32:43.964Z,100345.81
2023-05-16T07:35:13.398Z,100354.63
2023-05-16T07:37:43.536Z,100342.59
2023-05-16T07:40:14.578Z,100357.88
2023-05-16T07:42:43.049Z,100342.84
2023-05-16T07:45:11.902Z,100362.28
2023-05-16T07:47:40.758Z,100368.31
2023-05-16T07:50:10.634Z,100385.41
2023-05-16T07:52:39.028Z,100381.63
2023-05-16T07:55:09.409Z,100384.22
2023-05-16T07:57:39.344Z,100385.72
2023-05-16T08:00:09.788Z,100394.50
2023-05-16T08:02:41.474Z,100405.88
2023-05-16T08:05:11.100Z,100406.88
2023-05-16T08:07:39.653Z,100413.41
2023-05-16T08:10:11.816Z,100399.88
2023-05-16T08:12:45.247Z,100405.97
2023-05-16T08:15:13.726Z,100408.41
2023-05-16T08:17:42.382Z,100425.03
2023-05-16T08:20:12.293Z,100426.22
2023-05-16T08:22:40.842Z,100424.50
2023-05-16T08:25:09.986Z,100426.44
2023-05-16T08:27:38.461Z,100448.66
2023-05-16T08:30:11.428Z,100448.88
2023-05-16T08:32:40.040Z,100445.88
2023-05-16T08:35:11.085Z,100439.69
2023-05-16T08:37:39.740Z,100437.69
2023-05-16T08:40:11.634Z,100454.72
2023-05-16T08:42:41.496Z,100451.28
2023-05-16T08:45:13.343Z,100455.47
2023-05-16T08:47:44.417Z,100445.97
2023-05-16T08:50:13.336Z,100457.66
2023-05-16T08:52:45.009Z,100462.22
2023-05-16T08:55:14.465Z,100453.28
2023-05-16T08:57:42.989Z,100452.91
2023-05-16T09:00:15.110Z,100461.34
2023-05-16T09:02:44.925Z,100458.41
2023-05-16T09:05:16.329Z,100453.88
2023-05-16T09:07:46.135Z,100459.44
2023-05-16T09:10:15.127Z,100466.81
2023-05-16T09:12:43.898Z,100463.66
2023-05-16T09:15:14.009Z,100465.91
2023-05-16T09:17:48.176Z,100471.47
2023-05-16T09:20:21.152Z,100457.88
2023-05-16T09:22:54.577Z,100459.56
2023-05-16T09:27:55.962Z,100462.44
2023-05-16T09:30:31.524Z,100458.75
2023-05-16T09:33:00.611Z,100465.06
2023-05-16T09:38:00.630Z,100470.34
2023-05-16T09:40:29.154Z,100459.72
2023-05-16T09:43:05.895Z,100467.94
2023-05-16T09:45:37.599Z,100460.38
2023-05-16T09:48:08.808Z,100457.44
2023-05-16T09:50:39.024Z,100461.41
2023-05-16T09:53:07.977Z,100468.03
2023-05-16T09:55:36.509Z,100468.66
2023-05-16T09:58:04.971Z,100468.19
2023-05-16T10:00:36.043Z,100467.91
2023-05-16T10:03:05.741Z,100465.81
2023-05-16T10:05:35.918Z,100467.41
2023-05-16T10:08:05.733Z,100466.91
2023-05-16T10:10:38.455Z,100463.28
2023-05-16T10:13:09.022Z,100467.59
2023-05-16T10:15:40.115Z,100472.13
2023-05-16T10:18:13.287Z,100464.19
2023-05-16T10:20:44.316Z,100454.53
2023-05-16T10:23:20.035Z,100462.22
2023-05-16T10:25:50.658Z,100461.34
2023-05-16T10:28:19.935Z,100466.09
2023-05-16T10:30:50.665Z,100465.66
2023-05-16T10:33:20.533Z,100462.25
2023-05-16T10:35:49.121Z,100464.63
2023-05-16T10:38:20.785Z,100459.06
2023-05-16T10:40:50.202Z,100463.41
2023-05-16T10:43:26.862Z,100464.81
2023-05-16T10:46:05.541Z,100463.34
2023-05-16T10:48:35.879Z,100465.28
2023-05-16T10:51:06.294Z,100460.28
2023-05-16T10:53:36.600Z,100470.06
2023-05-16T10:56:12.832Z,100472.81
2023-05-16T10:58:46.111Z,100467.31
2023-05-16T11:01:22.718Z,100483.50
2023-05-16T11:04:11.623Z,100470.44
2023-05-16T11:07:00.066Z,100480.72
2023-05-16T11:09:30.873Z,100476.31
2023-05-16T11:12:03.347Z,100484.34
2023-05-16T11:14:39.273Z,100479.06
2023-05-16T11:17:15.010Z,100493.88
2023-05-16T11:19:46.092Z,100477.28
2023-05-16T11:22:24.418Z,100488.34
2023-05-16T11:24:59.070Z,100484.78
2023-05-16T11:27:30.952Z,100488.34
2023-05-16T11:30:12.276Z,100479.97
2023-05-16T11:32:45.104Z,100481.31
2023-05-16T11:35:15.641Z,100494.59
2023-05-16T11:37:44.718Z,100486.84
2023-05-16T11:40:15.703Z,100483.19
2023-05-16T11:42:47.644Z,100481.19
2023-05-16T11:45:18.757Z,100485.31
2023-05-16T11:47:50.700Z,100465.13
2023-05-16T11:50:22.101Z,100486.28
2023-05-16T11:52:53.874Z,100480.47
2023-05-16T11:55:40.364Z,100488.47
2023-05-16T11:58:12.292Z,100491.56
2023-05-16T12:00:50.282Z,100485.69
2023-05-16T12:03:21.652Z,100474.41
2023-05-16T12:05:54.350Z,100486.72
2023-05-16T12:08:24.754Z,100477.84
2023-05-16T12:10:54.585Z,100471.31
2023-05-16T12:13:25.840Z,100485.22
2023-05-16T12:15:54.912Z,100459.09
2023-05-16T12:18:26.452Z,100461.56
2023-05-16T12:20:54.954Z,100478.09
2023-05-16T12:23:23.396Z,100467.47
2023-05-16T12:25:53.950Z,100459.53
2023-05-16T12:28:22.518Z,100459.09
2023-05-16T12:30:51.097Z,100463.78
2023-05-16T12:33:19.956Z,100451.91
2023-05-16T12:35:51.757Z,100474.41
2023-05-16T12:38:22.183Z,100463.94
2023-05-16T12:40:51.489Z,100474.59
2023-05-16T12:43:23.060Z,100453.16
2023-05-16T12:45:53.997Z,100481.41
2023-05-16T12:48:23.308Z,100474.44
2023-05-16T12:50:53.503Z,100471.75
2023-05-16T12:53:21.940Z,100484.94
2023-05-16T12:55:50.338Z,100481.53
2023-05-16T12:58:19.857Z,100490.16
2023-05-16T13:00:48.655Z,100473.94
2023-05-16T13:03:17.455Z,100475.00
2023-05-16T13:05:46.025Z,100487.88
2023-05-16T13:08:16.103Z,100484.00
2023-05-16T13:10:44.926Z,100484.75
2023-05-16T13:13:22.021Z,100479.63
2023-05-16T13:15:59.652Z,100486.34
2023-05-16T13:18:28.203Z,100492.59
2023-05-16T13:20:56.887Z,100476.50
2023-05-16T13:23:27.137Z,100469.53
2023-05-16T13:25:55.916Z,100479.75
2023-05-16T13:28:24.487Z,100499.88
2023-05-16T13:30:53.138Z,100485.16
2023-05-16T13:33:22.829Z,100477.56
2023-05-16T13:35:51.478Z,100472.00
2023-05-16T13:38:20.004Z,100467.50
2023-05-16T13:40:49.820Z,100484.28
2023-05-16T13:43:18.418Z,100490.88
2023-05-16T13:45:47.091Z,100479.44
2023-05-16T13:48:15.868Z,100471.88
2023-05-16T13:50:44.876Z,100497.44
2023-05-16T13:53:13.921Z,100496.22
2023-05-16T13:55:42.563Z,100486.94
2023-05-16T13:58:12.337Z,100485.34
2023-05-16T14:00:44.974Z,100479.00
2023-05-16T14:03:14.538Z,100496.03
2023-05-16T14:05:43.138Z,100483.94
2023-05-16T14:08:11.508Z,100488.69
2023-05-16T14:10:39.920Z,100479.44
2023-05-16T14:13:08.375Z,100499.84
2023-05-16T14:15:38.201Z,100494.34
2023-05-16T14:18:07.590Z,100495.72
2023-05-16T14:20:35.994Z,100496.69
2023-05-16T14:23:04.350Z,100494.66
2023-05-16T14:25:32.968Z,100493.97
2023-05-16T14:28:01.287Z,100488.97
2023-05-16T14:30:29.890Z,100484.50
2023-05-16T14:33:01.299Z,100498.44
2023-05-16T14:35:30.180Z,100494.78
2023-05-16T14:37:58.790Z,100498.69
2023-05-16T14:40:27.467Z,100479.09
2023-05-16T14:42:55.903Z,100495.22
2023-05-16T14:45:24.344Z,100512.31
2023-05-16T14:47:53.508Z,100514.53
2023-05-16T14:50:23.561Z,100488.31
2023-05-16T14:52:53.082Z,100506.25
2023-05-16T14:55:22.667Z,100509.50
2023-05-16T14:57:57.092Z,100503.72
2023-05-16T15:00:28.244Z,100501.19
2023-05-16T15:02:56.926Z,100518.31
2023-05-16T15:05:27.094Z,100531.78
2023-05-16T15:07:55.744Z,100522.19
2023-05-16T15:10:24.309Z,100508.34
2023-05-16T15:12:53.981Z,100520.66
2023-05-16T15:15:22.372Z,100516.31
2023-05-16T15:17:50.929Z,100508.88
2023-05-16T15:20:21.857Z,100513.19
2023-05-16T15:22:52.361Z,100518.22
2023-05-16T15:25:21.170Z,100521.38
2023-05-16T15:27:49.634Z,100524.25
2023-05-16T15:30:18.246Z,100523.03
2023-05-16T15:32:46.637Z,100519.13
2023-05-16T15:35:15.096Z,100524.25
2023-05-16T15:37:43.831Z,100519.00
2023-05-16T15:40:15.213Z,100525.31
2023-05-16T15:42:44.403Z,100524.38
2023-05-16T15:45:13.511Z,100515.56
2023-05-16T15:47:43.127Z,100512.47
2023-05-16T15:50:12.669Z,100502.25
2023-05-16T15:52:41.194Z,100512.63
2023-05-16T15:55:12.020Z,100525.88
2023-05-16T15:57:43.878Z,100525.81
2023-05-16T16:00:14.087Z,100525.91
2023-05-16T16:02:45.349Z,100514.03
2023-05-16T16:05:13.860Z,100511.16
2023-05-16T16:07:42.343Z,100493.22
2023-05-16T16:10:12.422Z,100508.88
2023-05-16T16:12:42.316Z,100506.63
2023-05-16T16:15:12.434Z,100509.88
2023-05-16T16:17:41.011Z,100497.44
2023-05-16T16:20:10.665Z,100493.97
2023-05-16T16:22:39.105Z,100501.56
2023-05-16T16:25:11.784Z,100504.59
2023-05-16T16:27:41.621Z,100497.44
2023-05-16T16:30:11.273Z,100500.25
2023-05-16T16:32:39.804Z,100497.66
2023-05-16T16:35:09.110Z,100502.63
2023-05-16T16:37:37.692Z,100503.38
2023-05-16T16:40:10.253Z,100501.56
2023-05-16T16:42:40.530Z,100510.06
2023-05-16T16:45:11.837Z,100516.19
2023-05-16T16:47:40.560Z,100511.66
2023-05-16T16:50:11.153Z,100506.75
2023-05-16T16:52:39.631Z,100507.44
2023-05-16T16:55:09.093Z,100514.44
2023-05-16T16:57:37.570Z,100497.72
2023-05-16T17:00:11.500Z,100514.84
2023-05-16T17:02:41.613Z,100513.03
2023-05-16T17:05:12.206Z,100514.44
2023-05-16T17:07:40.725Z,100511.34
2023-05-16T17:10:10.720Z,100517.66
2023-05-16T17:12:46.118Z,100514.00
2023-05-16T17:15:14.496Z,100481.75
2023-05-16T17:17:45.637Z,100521.97
2023-05-16T17:20:14.620Z,100499.31
2023-05-16T17:22:43.034Z,100528.53
2023-05-16T17:25:11.982Z,100527.31
2023-05-16T17:27:40.784Z,100526.09
2023-05-16T17:30:10.933Z,100536.34
2023-05-16T17:32:39.883Z,100535.31
2023-05-16T17:35:10.733Z,100538.59
2023-05-16T17:37:39.315Z,100540.63
2023-05-16T17:40:12.010Z,100544.31
2023-05-16T17:42:40.455Z,100540.81
2023-05-16T17:45:12.169Z,100554.31
2023-05-16T17:47:41.253Z,100546.94
2023-05-16T17:50:12.053Z,100552.28
2023-05-16T17:52:40.628Z,100552.91
2023-05-16T17:55:11.059Z,100553.72
2023-05-16T17:57:40.580Z,100547.59
2023-05-16T18:00:10.678Z,100559.66
2023-05-16T18:02:40.093Z,100549.84
2023-05-16T18:05:12.099Z,100553.50
2023-05-16T18:07:41.073Z,100562.91
2023-05-16T18:10:11.461Z,100561.25
2023-05-16T18:12:41.623Z,100555.56
2023-05-16T18:15:12.681Z,100563.31
2023-05-16T18:17:41.207Z,100561.28
2023-05-16T18:20:13.113Z,100575.59
2023-05-16T18:22:42.853Z,100581.09
2023-05-16T18:25:12.325Z,100573.53
2023-05-16T18:27:40.844Z,100575.59
2023-05-16T18:30:13.235Z,100575.13
2023-05-16T18:32:41.785Z,100590.22
2023-05-16T18:35:13.283Z,100583.25
2023-05-16T18:37:43.548Z,100586.91
2023-05-16T18:40:14.047Z,100585.22
2023-05-16T18:42:42.516Z,100597.47
2023-05-16T18:45:12.316Z,100579.47
2023-05-16T18:47:41.419Z,100592.31
2023-05-16T18:50:12.448Z,100595.19
2023-05-16T18:52:41.563Z,100608.47
2023-05-16T18:55:11.137Z,100609.03
2023-05-16T18:57:39.633Z,100614.47
2023-05-16T19:00:10.340Z,100622.25
2023-05-16T19:02:42.537Z,100617.94
2023-05-16T19:05:14.405Z,100625.41
2023-05-16T19:07:43.188Z,100631.13
2023-05-16T19:10:12.444Z,100643.94
2023-05-16T19:12:40.812Z,100636.41
2023-05-16T19:15:11.902Z,100643.66
2023-05-16T19:17:41.767Z,100637.47
2023-05-16T19:20:12.364Z,100652.03
2023-05-16T19:22:40.971Z,100649.72
2023-05-16T19:25:10.726Z,100657.78
2023-05-16T19:27:39.290Z,100658.56
2023-05-16T19:30:09.833Z,100661.56
2023-05-16T19:32:38.491Z,100664.78
2023-05-16T19:35:07.992Z,100675.31
2023-05-16T19:37:38.130Z,100676.16
2023-05-16T19:40:10.143Z,100685.50
2023-05-16T19:42:38.686Z,100691.41
2023-05-16T19:45:09.132Z,100690.69
2023-05-16T19:47:37.829Z,100692.47
2023-05-16T19:50:07.987Z,100697.03
2023-05-16T19:52:38.957Z,100706.28
2023-05-16T19:55:10.537Z,100704.28
2023-05-16T19:57:38.939Z,100713.22
2023-05-16T20:00:09.611Z,100716.72
2023-05-16T20:02:45.006Z,100718.69
2023-05-16T20:05:14.486Z,100726.00
2023-05-16T20:07:44.313Z,100724.97
2023-05-16T20:10:13.085Z,100730.81
2023-05-16T20:12:41.447Z,100736.16
2023-05-16T20:15:11.654Z,100742.09
2023-05-16T20:17:41.222Z,100734.16
2023-05-16T20:20:11.167Z,100739.59
2023-05-16T20:22:41.571Z,100743.75
2023-05-16T20:25:12.516Z,100748.84
2023-05-16T20:27:42.228Z,100761.63
2023-05-16T20:30:11.670Z,100755.44
2023-05-16T20:32:40.610Z,100764.47
2023-05-16T20:35:11.456Z,100769.28
2023-05-16T20:37:41.451Z,100773.06
2023-05-16T20:40:12.903Z,100759.94
2023-05-16T20:42:41.992Z,100772.69
2023-05-16T20:45:14.934Z,100781.44
2023-05-16T20:47:43.898Z,100781.03
2023-05-16T20:50:12.992Z,100796.66
2023-05-16T20:52:41.664Z,100777.44
2023-05-16T20:55:11.724Z,100790.41
2023-05-16T20:57:42.377Z,100793.13
2023-05-16T21:00:14.210Z,100784.91
2023-05-16T21:02:42.812Z,100798.88
2023-05-16T21:05:34.806Z,100791.31
2023-05-16T21:08:00.469Z,100798.06
2023-05-16T21:10:30.498Z,100798.09
2023-05-16T21:12:59.498Z,100801.28
2023-05-16T21:15:28.340Z,100796.81
2023-05-16T21:17:57.550Z,100804.75
2023-05-16T21:20:28.496Z,100792.06
2023-05-16T21:22:57.409Z,100801.47
2023-05-16T21:25:26.146Z,100794.91
2023-05-16T21:27:56.350Z,100789.34
2023-05-16T21:30:25.116Z,100800.75
2023-05-16T21:32:53.633Z,100814.72
2023-05-16T21:35:22.500Z,100816.59
2023-05-16T21:37:51.417Z,100806.38
2023-05-16T21:40:25.048Z,100825.69
2023-05-16T21:42:55.597Z,100826.22
2023-05-16T21:45:24.384Z,100831.69
2023-05-16T21:47:53.017Z,100825.44
2023-05-16T21:50:21.917Z,100826.94
2023-05-16T21:52:50.721Z,100824.81
2023-05-16T21:55:19.477Z,100826.50
2023-05-16T21:57:48.039Z,100828.44
2023-05-16T22:00:19.165Z,100831.25
2023-05-16T22:02:48.696Z,100832.28
2023-05-16T22:05:19.218Z,100833.66
2023-05-16T22:07:48.190Z,100826.06
2023-05-16T22:10:16.975Z,100828.69
2023-05-16T22:12:45.444Z,100828.69
2023-05-16T22:15:14.024Z,100833.66
2023-05-16T22:17:43.937Z,100831.66
2023-05-16T22:20:13.062Z,100830.19
2023-05-16T22:22:42.178Z,100829.69
2023-05-16T22:25:10.922Z,100794.53
2023-05-16T22:27:39.532Z,100835.16
2023-05-16T22:30:09.805Z,100837.53
2023-05-16T22:32:38.335Z,100838.69
2023-05-16T22:35:09.172Z,100842.66
2023-05-16T22:37:39.685Z,100840.53
2023-05-16T22:40:10.275Z,100847.81
2023-05-16T22:42:38.680Z,100832.28
2023-05-16T22:45:08.549Z,100835.25
2023-05-16T22:47:36.960Z,100828.03
2023-05-16T22:50:07.880Z,100834.44
2023-05-16T22:52:41.133Z,100844.34
2023-05-16T22:55:10.471Z,100845.00
2023-05-16T22:57:38.902Z,100848.16
2023-05-16T23:00:09.395Z,100844.69
2023-05-16T23:02:37.824Z,100842.22
2023-05-16T23:05:09.365Z,100841.38
2023-05-16T23:07:37.719Z,100855.41
2023-05-16T23:10:07.756Z,100857.72
2023-05-16T23:12:36.176Z,100856.38
2023-05-16T23:15:06.505Z,100856.09
2023-05-16T23:17:34.856Z,100854.78
2023-05-16T23:20:03.298Z,100857.56
2023-05-16T23:22:33.076Z,100851.13
2023-05-16T23:25:01.509Z,100851.97
2023-05-16T23:27:29.896Z,100858.91
2023-05-16T23:29:58.488Z,100858.56
2023-05-16T23:32:26.948Z,100854.78
2023-05-16T23:34:55.638Z,100861.38
2023-05-16T23:37:23.987Z,100859.22
2023-05-16T23:39:53.771Z,100855.59
2023-05-16T23:42:22.137Z,100857.09
2023-05-16T23:44:50.704Z,100858.41
2023-05-16T23:47:19.055Z,100866.63
2023-05-16T23:49:47.381Z,100872.44
2023-05-16T23:52:15.757Z,100866.34
2023-05-16T23:54:45.405Z,100870.63
2023-05-16T23:57:15.202Z,100877.53
2023-05-16T23:59:43.577Z,100871.28
